Flight Track Log - Related Links

Times and Time Zones

All times are in EDT time to prevent confusion due to time zone crossing. See the DAL3799 flight status page for this flight to view local times or setup timezone preferences in your user account.


Time Position Orientation Groundspeed Altitude Reporting Facility
EDT Latitude Longitude Course Direction KTS MPH feet Rate Location/Type
Fri 10:15:41 PM 42.2058 -83.3556 16° North 150 173 1,300  Level Cleveland Center
Fri 10:16:42 PM 42.1600 -83.3536 178° South 192 221 3,300 1,969 Climbing Cleveland Center
Fri 10:17:49 PM 42.0892 -83.3478 177° South 270 311 5,500 2,484 Climbing Cleveland Center
Fri 10:18:00 PM 42.5399 -83.2347 12° North  Level FlightAware Approximate
Fri 10:18:50 PM 42.0556 -83.2681 120° Southeast 290 334 8,600  Level Cleveland Center
Fri 10:19:00 PM 42.6562 -83.1998 12° North  Level FlightAware Approximate
Fri 10:19:57 PM 42.0978 -83.1550 63° Northeast 290 334 10,600  Level Cleveland Center
Fri 10:20:00 PM 42.7724 -83.1644 16° North  Level FlightAware Approximate
Fri 10:20:57 PM 42.1861 -83.1278 13° North 292 336 12,900  Level Cleveland Center
Fri 10:21:57 PM 42.2819 -83.1286 360° North 297 342 15,100 1,900 Climbing Cleveland Center
Fri 10:22:57 PM 42.3819 -83.1300 359° North 326 375 16,700 1,550 Climbing Cleveland Center
Fri 10:23:57 PM 42.4819 -83.1339 358° North 338 389 18,200 1,600 Climbing Cleveland Center
Fri 10:24:57 PM 42.5778 -83.1322 North 366 421 19,900 1,550 Climbing Cleveland Center
Fri 10:25:57 PM 42.6819 -83.1336 359° North 366 421 21,300 1,350 Climbing Cleveland Center
Fri 10:26:57 PM 42.7861 -83.1350 359° North 366 421 22,600 1,150 Climbing Cleveland Center
Fri 10:27:57 PM 42.8853 -83.0908 18° North 366 421 23,600 950 Climbing Cleveland Center
Fri 10:28:57 PM 42.9319 -82.9425 67° East 356 410 24,500 700 Climbing Cleveland Center
Fri 10:29:57 PM 42.9686 -82.7792 73° East 398 458 25,000 250 Climbing Cleveland Center
Fri 10:30:57 PM 43.0050 -82.6075 74° East 428 493 25,000  Level Cleveland Center
Fri 10:31:38 PM 43.0333 -82.4667 75° East 470 541 25,000  Level Toronto Center
Fri 10:32:38 PM 43.0667 -82.3000 75° East 480 552 25,000  Level Toronto Center
Fri 10:33:38 PM 43.1000 -82.1167 76° East 480 552 25,000  Level Toronto Center
Fri 10:34:38 PM 43.1167 -81.9333 83° East 480 552 25,000  Level Toronto Center
Fri 10:35:38 PM 43.1833 -81.7667 61° Northeast 480 552 25,000  Level Toronto Center
Fri 10:36:38 PM 43.2000 -81.5833 83° East 480 552 25,000  Level Toronto Center
Fri 10:37:38 PM 43.2333 -81.4167 75° East 480 552 25,000  Level Toronto Center
Fri 10:38:38 PM 43.2667 -81.2333 76° East 480 552 25,000  Level Toronto Center
Fri 10:39:38 PM 43.3000 -81.0500 76° East 480 552 25,000  Level Toronto Center
Fri 10:40:38 PM 43.3333 -80.9000 73° East 480 552 25,000  Level Toronto Center
Fri 10:41:38 PM 43.3833 -80.7167 69° East 480 552 25,000  Level Toronto Center
Fri 10:42:38 PM 43.4167 -80.5333 76° East 480 552 25,000  Level Toronto Center
Fri 10:43:38 PM 43.4500 -80.3500 76° East 480 552 25,000  Level Toronto Center
Fri 10:44:38 PM 43.5000 -80.1833 67° East 470 541 25,000  Level Toronto Center
Fri 10:45:38 PM 43.5333 -80.0167 75° East 470 541 25,000  Level Toronto Center
Fri 10:46:38 PM 43.5833 -79.8333 69° East 470 541 25,000  Level Toronto Center
Fri 10:47:38 PM 43.6333 -79.6833 65° Northeast 470 541 25,000  Level Toronto Center
Fri 10:48:38 PM 43.6833 -79.5167 67° East 470 541 25,000  Level Toronto Center
Fri 10:49:38 PM 43.7333 -79.3333 69° East 470 541 25,000  Level Toronto Center
Fri 10:50:38 PM 43.7833 -79.1667 67° East 470 541 25,000  Level Toronto Center
Fri 10:51:38 PM 43.8333 -79.0167 65° Northeast 470 541 25,000  Level Toronto Center
Fri 10:52:38 PM 43.8833 -78.8167 71° East 470 541 25,000  Level Toronto Center
Fri 10:53:38 PM 43.9333 -78.6667 65° Northeast 470 541 25,000  Level Toronto Center
Fri 10:54:38 PM 43.9833 -78.5000 67° East 470 541 25,000  Level Toronto Center
Fri 10:55:38 PM 44.0167 -78.3333 74° East 470 541 25,000  Level Toronto Center
Fri 10:56:38 PM 44.0833 -78.1500 63° Northeast 470 541 25,000  Level Toronto Center
Fri 10:57:38 PM 44.1333 -78.0000 65° Northeast 470 541 25,000  Level Toronto Center
Fri 10:59:38 PM 44.2833 -77.7000 55° Northeast 470 541 25,000  Level Toronto Center
Fri 11:00:38 PM 44.3667 -77.5500 52° Northeast 470 541 25,000 -350 Level Toronto Center
Fri 11:01:38 PM 44.4333 -77.3833 61° Northeast 470 541 24,300 -750 Descending Toronto Center
Fri 11:02:38 PM 44.5000 -77.2167 61° Northeast 470 541 23,500 -900 Descending Toronto Center
Fri 11:03:38 PM 44.5667 -77.0833 55° Northeast 460 529 22,500 -992 Descending Toronto Center
Fri 11:04:45 PM 44.6500 -76.9333 52° Northeast 460 529 21,400 -1,087 Descending Montreal Center
Fri 11:05:45 PM 44.7167 -76.8167 51° Northeast 450 518 20,200 -1,300 Descending Montreal Center
Fri 11:06:45 PM 44.7833 -76.6500 61° Northeast 440 506 18,800 -1,168 Descending Montreal Center
Fri 11:07:38 PM 44.8500 -76.5000 58° Northeast 430 495 18,000 -1,381 Descending Toronto Center
Fri 11:08:38 PM 44.9167 -76.3833 51° Northeast 420 483 16,200 -1,750 Descending Toronto Center
Fri 11:09:38 PM 44.9833 -76.2667 51° Northeast 390 449 14,500 -1,550 Descending Toronto Center
Fri 11:10:38 PM 45.0333 -76.1333 62° Northeast 370 426 13,100 -1,500 Descending Toronto Center
Fri 11:11:38 PM 45.0333 -76.0167 90° East 330 380 11,500 -1,700 Descending Toronto Center
Fri 11:12:38 PM 45.0667 -75.9000 68° East 300 345 9,700 -1,850 Descending Toronto Center
Fri 11:13:38 PM 45.0833 -75.7833 79° East 290 334 7,800 -1,800 Descending Toronto Center
Fri 11:14:38 PM 45.1000 -75.6833 77° East 280 322 6,100 -1,512 Descending Toronto Center
Fri 11:15:45 PM 45.1167 -75.6167 70° East 240 276 4,600 -1,181 Descending Montreal Center
Fri 11:16:45 PM 45.1500 -75.5333 60° Northeast 210 242 3,600 -1,000 Descending Montreal Center
Fri 11:17:45 PM 45.1833 -75.4667 55° Northeast 190 219 2,600 -750 Descending Montreal Center
Fri 11:18:45 PM 45.2167 -75.5167 313° West 190 219 2,100 -450 Descending Montreal Center
Fri 11:19:45 PM 45.2500 -75.5833 305° West 190 219 1,700 -550 Descending Montreal Center
Fri 11:20:45 PM 45.2833 -75.6333 313° West 130 150 1,000 -650 Descending Montreal Center
Fri 11:21:45 PM 45.3000 -75.6667 305° West 130 150 400 -300 Descending Montreal Center
Fri 11:22:45 PM 45.3000 -75.6667 90° East 10 12 400  Level Montreal Center

Login

Don't have an account? Register now (free) for customized features, flight alerts, and more!